createdAt,value
2023-02-18T00:00:18.701Z,100900.25
2023-02-18T00:02:47.960Z,100881.84
2023-02-18T00:05:17.861Z,100876.84
2023-02-18T00:07:46.978Z,100901.50
2023-02-18T00:10:17.084Z,100902.84
2023-02-18T00:12:47.143Z,100902.84
2023-02-18T00:15:15.620Z,100894.06
2023-02-18T00:17:44.190Z,100904.34
2023-02-18T00:20:14.471Z,100899.28
2023-02-18T00:22:43.082Z,100916.22
2023-02-18T00:25:12.358Z,100924.59
2023-02-18T00:27:40.917Z,100916.72
2023-02-18T00:30:13.800Z,100940.56
2023-02-18T00:32:42.735Z,100943.16
2023-02-18T00:35:12.068Z,100946.53
2023-02-18T00:37:41.179Z,100945.03
2023-02-18T00:40:10.983Z,100952.47
2023-02-18T00:42:39.591Z,100939.13
2023-02-18T00:45:11.545Z,100942.38
2023-02-18T00:47:40.950Z,100955.53
2023-02-18T00:50:12.291Z,100955.53
2023-02-18T00:52:41.555Z,100953.31
2023-02-18T00:55:10.174Z,100958.28
2023-02-18T00:57:38.444Z,100954.59
2023-02-18T01:00:08.949Z,100955.34
2023-02-18T01:02:39.215Z,100969.28
2023-02-18T01:05:08.029Z,100960.06
2023-02-18T01:07:36.467Z,100945.78
2023-02-18T01:10:05.699Z,100961.00
2023-02-18T01:12:34.095Z,100962.03
2023-02-18T01:15:02.729Z,100956.16
2023-02-18T01:17:31.385Z,100954.25
2023-02-18T01:20:01.264Z,100939.97
2023-02-18T01:22:29.541Z,100937.13
2023-02-18T01:24:58.495Z,100944.81
2023-02-18T01:27:26.894Z,100946.25
2023-02-18T01:29:55.703Z,100951.72
2023-02-18T01:32:24.210Z,100929.06
2023-02-18T01:34:52.604Z,100944.88
2023-02-18T01:37:22.398Z,100954.00
2023-02-18T01:39:50.775Z,100958.28
2023-02-18T01:42:23.057Z,100958.00
2023-02-18T01:44:52.377Z,100955.69
2023-02-18T01:47:21.586Z,100947.53
2023-02-18T01:49:55.056Z,100955.69
2023-02-18T01:52:32.493Z,100945.25
2023-02-18T01:55:01.432Z,100948.00
2023-02-18T01:57:36.403Z,100947.13
2023-02-18T02:00:12.153Z,100942.16
2023-02-18T02:02:46.491Z,100942.06
2023-02-18T02:05:15.526Z,100943.88
2023-02-18T02:07:48.894Z,100932.06
2023-02-18T02:10:18.134Z,100959.81
2023-02-18T02:13:02.048Z,100955.44
2023-02-18T02:15:45.980Z,100960.78
2023-02-18T02:18:51.943Z,100947.69
2023-02-18T02:22:16.094Z,100931.72
2023-02-18T02:25:22.189Z,100889.78
2023-02-18T02:28:35.398Z,100931.03
2023-02-18T02:31:59.269Z,100932.94
2023-02-18T02:34:49.134Z,100932.19
2023-02-18T02:37:28.634Z,100929.53
2023-02-18T02:40:20.662Z,100919.97
2023-02-18T02:43:07.633Z,100920.56
2023-02-18T02:45:54.019Z,100917.72
2023-02-18T02:48:34.744Z,100918.88
2023-02-18T02:51:12.537Z,100928.47
2023-02-18T02:53:44.219Z,100924.00
2023-02-18T02:57:25.090Z,100924.00
2023-02-18T02:59:59.997Z,100941.88
2023-02-18T03:02:42.399Z,100934.84
2023-02-18T03:05:26.541Z,100945.50
2023-02-18T03:08:23.238Z,100926.56
2023-02-18T03:11:02.572Z,100938.09
2023-02-18T03:13:55.209Z,100933.00
2023-02-18T03:16:35.798Z,100952.72
2023-02-18T03:19:14.796Z,100951.56
2023-02-18T03:21:51.165Z,100950.13
2023-02-18T03:24:30.218Z,100952.00
2023-02-18T03:27:07.854Z,100952.72
2023-02-18T03:29:37.756Z,100948.91
2023-02-18T03:32:13.400Z,100953.50
2023-02-18T03:34:48.606Z,100957.34
2023-02-18T03:37:19.203Z,100958.19
2023-02-18T03:39:56.527Z,100965.44
2023-02-18T03:42:28.472Z,100962.78
2023-02-18T03:44:57.327Z,100964.47
2023-02-18T03:47:26.337Z,100955.28
2023-02-18T03:49:54.713Z,100968.34
2023-02-18T03:52:23.208Z,100942.22
2023-02-18T03:54:52.921Z,100958.81
2023-02-18T03:57:21.269Z,100939.56
2023-02-18T03:59:49.620Z,100949.25
2023-02-18T04:02:17.911Z,100953.50
2023-02-18T04:04:46.311Z,100937.50
2023-02-18T04:07:14.658Z,100934.66
2023-02-18T04:09:42.975Z,100943.22
2023-02-18T04:12:13.017Z,100942.38
2023-02-18T04:14:42.074Z,100947.34
2023-02-18T04:17:12.773Z,100934.88
2023-02-18T04:19:41.887Z,100944.94
2023-02-18T04:22:11.527Z,100936.03
2023-02-18T04:24:40.162Z,100926.16
2023-02-18T04:27:08.730Z,100934.13
2023-02-18T04:29:39.933Z,100935.94
2023-02-18T04:32:08.551Z,100951.91
2023-02-18T04:34:36.904Z,100952.00
2023-02-18T04:37:05.310Z,100953.22
2023-02-18T04:39:33.834Z,100955.34
2023-02-18T04:42:02.230Z,100955.09
2023-02-18T04:44:30.529Z,100970.56
2023-02-18T04:47:00.175Z,100959.56
2023-02-18T04:49:28.517Z,100956.78
2023-02-18T04:51:56.910Z,100952.44
2023-02-18T04:54:25.362Z,100946.13
2023-02-18T04:56:53.726Z,100935.47
2023-02-18T04:59:22.094Z,100941.00
2023-02-18T05:01:50.467Z,100928.03
2023-02-18T05:04:20.246Z,100933.28
2023-02-18T05:06:48.680Z,100932.22
2023-02-18T05:09:17.008Z,100927.25
2023-02-18T05:11:47.544Z,100941.16
2023-02-18T05:14:16.322Z,100928.09
2023-02-18T05:16:44.768Z,100928.97
2023-02-18T05:19:16.157Z,100927.94
2023-02-18T05:21:46.967Z,100925.38
2023-02-18T05:24:15.246Z,100932.31
2023-02-18T05:26:43.589Z,100916.94
2023-02-18T05:29:12.638Z,100909.97
2023-02-18T05:31:41.328Z,100919.41
2023-02-18T05:34:09.927Z,100917.78
2023-02-18T05:36:38.606Z,100913.41
2023-02-18T05:39:08.368Z,100919.84
2023-02-18T05:41:36.781Z,100914.50
2023-02-18T05:44:22.742Z,100899.75
2023-02-18T05:46:51.073Z,100908.22
2023-02-18T05:49:19.487Z,100908.38
2023-02-18T05:51:47.824Z,100912.91
2023-02-18T05:54:17.528Z,100914.63
2023-02-18T05:56:45.828Z,100913.69
2023-02-18T05:59:14.434Z,100902.03
2023-02-18T06:01:43.164Z,100913.53
2023-02-18T06:04:12.333Z,100920.81
2023-02-18T06:06:41.326Z,100917.38
2023-02-18T06:09:11.366Z,100920.91
2023-02-18T06:11:42.268Z,100907.19
2023-02-18T06:14:11.181Z,100890.59
2023-02-18T06:16:39.875Z,100882.38
2023-02-18T06:19:08.307Z,100910.97
2023-02-18T06:21:36.814Z,100904.63
2023-02-18T06:24:05.822Z,100893.38
2023-02-18T06:26:35.163Z,100889.84
2023-02-18T06:29:05.438Z,100886.25
2023-02-18T06:31:34.026Z,100884.34
2023-02-18T06:34:02.567Z,100881.59
2023-02-18T06:36:30.905Z,100889.16
2023-02-18T06:38:59.392Z,100882.75
2023-02-18T06:41:27.678Z,100887.22
2023-02-18T06:43:56.001Z,100884.47
2023-02-18T06:46:25.773Z,100885.75
2023-02-18T06:48:54.186Z,100890.31
2023-02-18T06:51:23.030Z,100883.59
2023-02-18T06:53:51.384Z,100884.25
2023-02-18T06:56:19.721Z,100871.72
2023-02-18T06:58:48.133Z,100879.44
2023-02-18T07:01:16.545Z,100866.88
2023-02-18T07:03:49.783Z,100858.63
2023-02-18T07:06:18.531Z,100878.03
2023-02-18T07:08:46.864Z,100866.22
2023-02-18T07:11:16.816Z,100858.25
2023-02-18T07:13:45.400Z,100868.97
2023-02-18T07:16:13.697Z,100875.09
2023-02-18T07:18:43.115Z,100875.94
2023-02-18T07:21:12.963Z,100867.00
2023-02-18T07:23:41.882Z,100867.00
2023-02-18T07:26:13.653Z,100878.41
2023-02-18T07:28:43.436Z,100873.28
2023-02-18T07:31:13.282Z,100859.75
2023-02-18T07:33:43.189Z,100860.44
2023-02-18T07:36:13.383Z,100849.78
2023-02-18T07:38:43.085Z,100848.19
2023-02-18T07:41:19.581Z,100849.50
2023-02-18T07:43:48.131Z,100841.13
2023-02-18T07:46:16.778Z,100842.84
2023-02-18T07:48:45.169Z,100844.38
2023-02-18T07:51:15.826Z,100855.03
2023-02-18T07:53:44.501Z,100839.81
2023-02-18T07:56:12.964Z,100841.44
2023-02-18T07:58:42.874Z,100842.66
2023-02-18T08:01:15.391Z,100835.41
2023-02-18T08:03:44.174Z,100830.88
2023-02-18T08:06:26.471Z,100831.53
2023-02-18T08:08:54.863Z,100828.75
2023-02-18T08:11:23.328Z,100838.78
2023-02-18T08:13:51.706Z,100835.41
2023-02-18T08:16:22.377Z,100831.25
2023-02-18T08:18:51.275Z,100835.25
2023-02-18T08:21:25.892Z,100828.38
2023-02-18T08:23:55.194Z,100822.88
2023-02-18T08:26:23.549Z,100823.59
2023-02-18T08:28:51.974Z,100821.19
2023-02-18T08:31:23.696Z,100819.09
2023-02-18T08:33:52.660Z,100810.13
2023-02-18T08:36:24.069Z,100813.06
2023-02-18T08:38:52.465Z,100802.38
2023-02-18T08:41:21.670Z,100806.47
2023-02-18T08:43:50.785Z,100808.84
2023-02-18T08:46:31.449Z,100805.88
2023-02-18T08:49:05.420Z,100791.59
2023-02-18T08:51:36.195Z,100799.50
2023-02-18T08:54:05.041Z,100807.59
2023-02-18T08:56:33.612Z,100814.53
2023-02-18T08:59:01.980Z,100800.72
2023-02-18T09:01:30.339Z,100800.94
2023-02-18T09:03:59.275Z,100797.13
2023-02-18T09:06:27.946Z,100794.38
2023-02-18T09:08:57.706Z,100803.00
2023-02-18T09:11:26.483Z,100787.00
2023-02-18T09:13:54.836Z,100780.94
2023-02-18T09:16:26.072Z,100780.38
2023-02-18T09:18:54.896Z,100779.31
2023-02-18T09:21:24.736Z,100775.88
2023-02-18T09:23:53.974Z,100772.53
2023-02-18T09:26:27.904Z,100764.91
2023-02-18T09:28:58.450Z,100761.69
2023-02-18T09:31:29.432Z,100756.34
2023-02-18T09:34:01.335Z,100752.63
2023-02-18T09:36:30.454Z,100744.38
2023-02-18T09:38:59.615Z,100747.22
2023-02-18T09:41:41.727Z,100742.84
2023-02-18T09:44:17.893Z,100731.66
2023-02-18T09:46:54.126Z,100718.91
2023-02-18T09:49:27.961Z,100731.66
2023-02-18T09:51:58.369Z,100722.72
2023-02-18T09:54:29.077Z,100724.06
2023-02-18T09:57:00.999Z,100723.47
2023-02-18T09:59:32.623Z,100732.91
2023-02-18T10:02:03.307Z,100725.28
2023-02-18T10:04:41.132Z,100718.34
2023-02-18T10:07:28.387Z,100720.25
2023-02-18T10:10:00.422Z,100723.09
2023-02-18T10:12:35.092Z,100715.00
2023-02-18T10:15:04.562Z,100718.34
2023-02-18T10:17:35.344Z,100723.47
2023-02-18T10:20:08.432Z,100714.91
2023-02-18T10:22:40.050Z,100709.41
2023-02-18T10:25:10.975Z,100701.56
2023-02-18T10:27:42.813Z,100703.47
2023-02-18T10:30:24.893Z,100705.31
2023-02-18T10:33:10.942Z,100716.97
2023-02-18T10:35:52.111Z,100709.16
2023-02-18T10:38:36.218Z,100698.81
2023-02-18T10:41:19.070Z,100693.00
2023-02-18T10:43:58.798Z,100691.84
2023-02-18T10:46:38.804Z,100682.59
2023-02-18T10:49:35.469Z,100681.59
2023-02-18T10:52:07.192Z,100673.47
2023-02-18T10:54:54.500Z,100665.06
2023-02-18T10:57:25.642Z,100658.31
2023-02-18T11:00:11.795Z,100648.59
2023-02-18T11:02:43.273Z,100636.00
2023-02-18T11:05:26.259Z,100641.91
2023-02-18T11:07:59.325Z,100632.50
2023-02-18T11:10:33.733Z,100631.06
2023-02-18T11:13:05.348Z,100626.31
2023-02-18T11:15:35.826Z,100628.88
2023-02-18T11:18:33.720Z,100631.84
2023-02-18T11:21:04.689Z,100620.41
2023-02-18T11:23:32.868Z,100617.31
2023-02-18T11:26:04.218Z,100617.78
2023-02-18T11:28:43.652Z,100626.19
2023-02-18T11:31:21.077Z,100627.38
2023-02-18T11:33:52.326Z,100629.69
2023-02-18T11:36:25.396Z,100627.75
2023-02-18T11:38:56.411Z,100619.28
2023-02-18T11:41:34.364Z,100615.09
2023-02-18T11:44:05.225Z,100611.41
2023-02-18T11:46:35.621Z,100616.81
2023-02-18T11:49:22.908Z,100609.13
2023-02-18T11:51:52.495Z,100605.16
2023-02-18T11:54:27.269Z,100606.97
2023-02-18T11:56:58.501Z,100603.81
2023-02-18T11:59:28.767Z,100590.38
2023-02-18T12:02:07.292Z,100585.91
2023-02-18T12:04:42.653Z,100586.88
2023-02-18T12:07:20.422Z,100579.66
2023-02-18T12:09:53.223Z,100576.22
2023-02-18T12:12:27.599Z,100583.56
2023-02-18T12:14:56.855Z,100583.84
2023-02-18T12:17:46.723Z,100581.47
2023-02-18T12:20:38.003Z,100586.22
2023-02-18T12:23:16.113Z,100585.75
2023-02-18T12:25:53.383Z,100591.63
2023-02-18T12:28:37.050Z,100584.91
2023-02-18T12:31:30.954Z,100584.50
2023-02-18T12:34:16.762Z,100577.25
2023-02-18T12:36:58.922Z,100587.50
2023-02-18T12:39:44.767Z,100590.25
2023-02-18T12:42:28.986Z,100601.53
2023-02-18T12:45:25.311Z,100585.72
2023-02-18T12:48:11.428Z,100584.22
2023-02-18T12:51:07.164Z,100605.81
2023-02-18T12:54:07.442Z,100623.84
2023-02-18T12:57:17.828Z,100636.84
2023-02-18T13:00:18.559Z,100639.84
2023-02-18T13:03:05.498Z,100642.50
2023-02-18T13:05:44.270Z,100645.16
2023-02-18T13:08:33.189Z,100637.19
2023-02-18T13:11:12.973Z,100639.09
2023-02-18T13:13:44.193Z,100643.03
2023-02-18T13:16:16.388Z,100642.50
2023-02-18T13:18:48.908Z,100624.41
2023-02-18T13:21:18.507Z,100614.25
2023-02-18T13:23:53.241Z,100590.50
2023-02-18T13:26:23.438Z,100556.50
2023-02-18T13:29:03.607Z,100527.19
2023-02-18T13:31:42.138Z,100521.44
2023-02-18T13:34:19.914Z,100565.19
2023-02-18T13:37:05.602Z,100577.94
2023-02-18T13:39:35.836Z,100590.38
2023-02-18T13:42:26.841Z,100608.34
2023-02-18T13:45:19.941Z,100620.47
2023-02-18T13:47:50.677Z,100640.19
2023-02-18T13:50:28.292Z,100658.19
2023-02-18T13:53:16.624Z,100661.00
2023-02-18T13:55:54.043Z,100672.91
2023-02-18T13:58:25.867Z,100685.53
2023-02-18T14:00:59.946Z,100677.19
2023-02-18T14:03:38.217Z,100681.22
2023-02-18T14:06:17.793Z,100675.22
2023-02-18T14:08:46.838Z,100662.91
2023-02-18T14:11:44.848Z,100660.16
2023-02-18T14:14:40.613Z,100666.19
2023-02-18T14:17:42.137Z,100669.72
2023-02-18T14:20:51.348Z,100660.72
2023-02-18T14:23:53.688Z,100671.81
2023-02-18T14:26:29.517Z,100684.47
2023-02-18T14:29:04.193Z,100691.81
2023-02-18T14:31:42.970Z,100694.19
2023-02-18T14:34:33.904Z,100709.69
2023-02-18T14:37:16.559Z,100692.56
2023-02-18T14:39:55.383Z,100695.97
2023-02-18T14:42:35.675Z,100700.78
2023-02-18T14:45:20.595Z,100695.59
2023-02-18T14:48:07.940Z,100686.19
2023-02-18T14:50:38.630Z,100664.75
2023-02-18T14:53:10.898Z,100668.78
2023-02-18T14:55:45.145Z,100687.75
2023-02-18T14:58:24.962Z,100678.53
2023-02-18T15:00:54.511Z,100669.06
2023-02-18T15:03:23.863Z,100687.63
2023-02-18T15:05:52.556Z,100681.09
2023-02-18T15:08:22.669Z,100677.34
2023-02-18T15:10:54.262Z,100681.94
2023-02-18T15:13:26.887Z,100684.81
2023-02-18T15:15:58.937Z,100680.72
2023-02-18T15:18:32.878Z,100698.75
2023-02-18T15:21:03.143Z,100690.16
2023-02-18T15:23:32.179Z,100689.81
2023-02-18T15:26:00.325Z,100685.53
2023-02-18T15:28:32.546Z,100684.41
2023-02-18T15:31:03.670Z,100680.50
2023-02-18T15:33:31.956Z,100687.94
2023-02-18T15:36:03.866Z,100685.78
2023-02-18T15:38:32.613Z,100678.50
2023-02-18T15:41:02.432Z,100691.97
2023-02-18T15:43:32.241Z,100704.81
2023-02-18T15:46:00.644Z,100718.91
2023-02-18T15:48:47.861Z,100732.81
2023-02-18T15:51:22.243Z,100750.59
2023-02-18T15:53:53.599Z,100764.88
2023-02-18T15:56:31.087Z,100764.34
2023-02-18T15:59:18.957Z,100760.75
2023-02-18T16:01:51.292Z,100768.09
2023-02-18T16:04:21.688Z,100763.94
2023-02-18T16:06:51.683Z,100780.16
2023-02-18T16:09:24.443Z,100792.72
2023-02-18T16:11:59.603Z,100801.91
2023-02-18T16:14:34.832Z,100803.69
2023-02-18T16:17:16.078Z,100824.06
2023-02-18T16:20:04.000Z,100826.41
2023-02-18T16:22:38.455Z,100829.56
2023-02-18T16:25:18.296Z,100836.41
2023-02-18T16:27:53.999Z,100844.38
2023-02-18T16:30:24.080Z,100850.66
2023-02-18T16:32:52.435Z,100854.22
2023-02-18T16:35:27.860Z,100852.34
2023-02-18T16:37:58.511Z,100849.22
2023-02-18T16:40:29.988Z,100859.84
2023-02-18T16:43:00.324Z,100861.88
2023-02-18T16:45:41.158Z,100867.53
2023-02-18T16:48:16.480Z,100876.44
2023-02-18T16:50:46.464Z,100866.78
2023-02-18T16:53:14.986Z,100878.50
2023-02-18T16:55:43.079Z,100874.72
2023-02-18T16:58:11.682Z,100871.94
2023-02-18T17:00:40.911Z,100872.38
2023-02-18T17:03:09.564Z,100888.91
2023-02-18T17:05:40.516Z,100898.75
2023-02-18T17:08:18.965Z,100899.00
2023-02-18T17:10:48.408Z,100909.25
2023-02-18T17:13:17.656Z,100904.53
2023-02-18T17:15:47.998Z,100910.19
2023-02-18T17:18:16.167Z,100914.78
